Mohyliv-Podil's'Kyi, Ukraine
Current Conditions -  °F | °C
As of 12:30 PM on Monday 22 Dec 2014 (Local Time) from LUBL Reporting Station
Clear Clear  
Wind Chill: 29°   Ceiling: Unl
Heat Index: 37°   Visibility: 6mi
Dew Point: 27°   Wind: 13mph
Humidity: 65%   Direction: 210°SSW
Pressure: 30"   Gusts: NA
Location:  48.45°N, 27.79°E
Report Text: LUBL 220930Z 21011KT CAVOK 03/M03 Q1016
Loading
Personal Weather Stations






























Interactive Weather Map New forecast layout! Learn more

10-Day Weather Forecast

Advertisements
Track Severe Weather on mobile